sensor_id;sensor_type;location;lat;lon;timestamp;pressure;altitude;pressure_sealevel;temperature;humidity
32789;BME280;19141;48.980;8.410;2023-07-13T04:22:32;100299.41;;;15.53;100.00
32789;BME280;19141;48.980;8.410;2023-07-13T04:24:58;100305.59;;;15.54;100.00
32789;BME280;19141;48.980;8.410;2023-07-13T04:27:23;100303.50;;;15.36;100.00
32789;BME280;19141;48.980;8.410;2023-07-13T04:29:48;100304.13;;;15.51;100.00
32789;BME280;19141;48.980;8.410;2023-07-13T04:32:14;100294.84;;;15.47;100.00
32789;BME280;19141;48.980;8.410;2023-07-13T04:34:39;100297.75;;;15.45;100.00
32789;BME280;19141;48.980;8.410;2023-07-13T04:37:05;100301.66;;;15.50;100.00
32789;BME280;19141;48.980;8.410;2023-07-13T04:39:30;100314.69;;;15.53;100.00
32789;BME280;19141;48.980;8.410;2023-07-13T04:41:56;100309.50;;;15.58;100.00
32789;BME280;19141;48.980;8.410;2023-07-13T04:44:21;100309.34;;;15.59;100.00
32789;BME280;19141;48.980;8.410;2023-07-13T04:46:46;100312.25;;;15.71;100.00
32789;BME280;19141;48.980;8.410;2023-07-13T04:49:12;100310.63;;;15.83;100.00
32789;BME280;19141;48.980;8.410;2023-07-13T04:51:37;100316.19;;;15.95;100.00
32789;BME280;19141;48.980;8.410;2023-07-13T04:54:03;100328.41;;;16.11;100.00
32789;BME280;19141;48.980;8.410;2023-07-13T04:56:30;100326.94;;;16.15;100.00
32789;BME280;19141;48.980;8.410;2023-07-13T04:58:55;100322.16;;;16.23;100.00
32789;BME280;19141;48.980;8.410;2023-07-13T05:01:21;100318.88;;;16.28;100.00
32789;BME280;19141;48.980;8.410;2023-07-13T05:03:46;100319.28;;;16.38;100.00
32789;BME280;19141;48.980;8.410;2023-07-13T05:06:11;100320.09;;;16.52;100.00
32789;BME280;19141;48.980;8.410;2023-07-13T05:08:39;100315.50;;;16.59;100.00
32789;BME280;19141;48.980;8.410;2023-07-13T05:11:05;100317.38;;;16.72;100.00
32789;BME280;19141;48.980;8.410;2023-07-13T05:13:31;100315.03;;;16.82;100.00
32789;BME280;19141;48.980;8.410;2023-07-13T05:15:58;100317.72;;;16.89;100.00
32789;BME280;19141;48.980;8.410;2023-07-13T05:18:24;100317.06;;;17.00;100.00
32789;BME280;19141;48.980;8.410;2023-07-13T05:21:19;100317.47;;;17.03;100.00
32789;BME280;19141;48.980;8.410;2023-07-13T05:23:45;100320.97;;;17.04;100.00
32789;BME280;19141;48.980;8.410;2023-07-13T05:26:10;100319.75;;;17.00;100.00
32789;BME280;19141;48.980;8.410;2023-07-13T05:28:36;100319.13;;;17.04;98.63
32789;BME280;19141;48.980;8.410;2023-07-13T05:31:02;100316.41;;;17.04;98.69
32789;BME280;19141;48.980;8.410;2023-07-13T05:33:27;100321.16;;;17.16;98.83
32789;BME280;19141;48.980;8.410;2023-07-13T05:35:53;100328.16;;;17.17;98.40
32789;BME280;19141;48.980;8.410;2023-07-13T05:38:18;100331.06;;;17.22;97.82
32789;BME280;19141;48.980;8.410;2023-07-13T05:40:45;100329.81;;;17.18;97.71
32789;BME280;19141;48.980;8.410;2023-07-13T05:43:12;100333.53;;;17.23;98.54
32789;BME280;19141;48.980;8.410;2023-07-13T05:45:37;100335.59;;;17.28;98.72
32789;BME280;19141;48.980;8.410;2023-07-13T05:48:03;100333.50;;;17.30;98.77
32789;BME280;19141;48.980;8.410;2023-07-13T05:50:28;100340.50;;;17.38;98.76
32789;BME280;19141;48.980;8.410;2023-07-13T05:52:54;100347.69;;;17.44;97.44
32789;BME280;19141;48.980;8.410;2023-07-13T05:55:19;100356.13;;;17.54;96.41
32789;BME280;19141;48.980;8.410;2023-07-13T05:57:45;100356.53;;;17.57;94.89
32789;BME280;19141;48.980;8.410;2023-07-13T06:00:11;100361.91;;;17.57;93.70
32789;BME280;19141;48.980;8.410;2023-07-13T06:02:39;100362.69;;;17.71;92.95
32789;BME280;19141;48.980;8.410;2023-07-13T06:05:05;100360.97;;;17.83;92.55
32789;BME280;19141;48.980;8.410;2023-07-13T06:07:30;100360.69;;;17.92;91.51
32789;BME280;19141;48.980;8.410;2023-07-13T06:09:56;100367.84;;;18.04;89.26
32789;BME280;19141;48.980;8.410;2023-07-13T06:12:21;100374.06;;;18.30;88.05
32789;BME280;19141;48.980;8.410;2023-07-13T06:14:47;100368.03;;;18.34;86.73
32789;BME280;19141;48.980;8.410;2023-07-13T06:17:12;100373.53;;;18.46;85.45
32789;BME280;19141;48.980;8.410;2023-07-13T06:19:38;100374.94;;;18.49;83.54
32789;BME280;19141;48.980;8.410;2023-07-13T06:22:03;100381.56;;;18.53;83.63
32789;BME280;19141;48.980;8.410;2023-07-13T06:24:29;100387.16;;;18.51;83.63
32789;BME280;19141;48.980;8.410;2023-07-13T06:26:54;100383.78;;;18.56;82.22
32789;BME280;19141;48.980;8.410;2023-07-13T06:29:20;100397.88;;;18.58;83.44
32789;BME280;19141;48.980;8.410;2023-07-13T06:31:45;100396.22;;;18.57;85.41
32789;BME280;19141;48.980;8.410;2023-07-13T06:34:10;100403.25;;;18.58;84.19
32789;BME280;19141;48.980;8.410;2023-07-13T06:36:36;100400.50;;;18.64;82.26
32789;BME280;19141;48.980;8.410;2023-07-13T06:39:03;100398.81;;;18.70;82.88
32789;BME280;19141;48.980;8.410;2023-07-13T06:41:29;100397.72;;;18.78;83.80
32789;BME280;19141;48.980;8.410;2023-07-13T06:43:56;100404.09;;;18.83;83.22
32789;BME280;19141;48.980;8.410;2023-07-13T06:46:22;100403.13;;;18.96;81.51
32789;BME280;19141;48.980;8.410;2023-07-13T06:48:47;100408.44;;;19.03;78.30
32789;BME280;19141;48.980;8.410;2023-07-13T06:51:13;100414.16;;;19.13;79.33
32789;BME280;19141;48.980;8.410;2023-07-13T06:53:39;100410.09;;;19.22;75.87
32789;BME280;19141;48.980;8.410;2023-07-13T06:56:04;100405.69;;;19.28;76.38
32789;BME280;19141;48.980;8.410;2023-07-13T06:58:30;100407.63;;;19.39;75.75
32789;BME280;19141;48.980;8.410;2023-07-13T07:00:56;100410.91;;;19.41;77.20
32789;BME280;19141;48.980;8.410;2023-07-13T07:03:21;100414.59;;;19.46;76.78
32789;BME280;19141;48.980;8.410;2023-07-13T07:05:47;100406.63;;;19.51;74.96
32789;BME280;19141;48.980;8.410;2023-07-13T07:08:13;100412.56;;;19.60;75.45
32789;BME280;19141;48.980;8.410;2023-07-13T07:10:38;100412.25;;;19.68;74.30
32789;BME280;19141;48.980;8.410;2023-07-13T07:13:04;100428.25;;;19.82;74.53
32789;BME280;19141;48.980;8.410;2023-07-13T07:15:29;100422.28;;;19.79;73.94
32789;BME280;19141;48.980;8.410;2023-07-13T07:17:55;100432.56;;;20.01;73.00
32789;BME280;19141;48.980;8.410;2023-07-13T07:20:20;100419.91;;;20.13;71.73
32789;BME280;19141;48.980;8.410;2023-07-13T07:22:46;100418.06;;;20.25;70.57
32789;BME280;19141;48.980;8.410;2023-07-13T07:25:12;100427.13;;;20.31;69.26
32789;BME280;19141;48.980;8.410;2023-07-13T07:27:38;100417.59;;;20.28;69.78
32789;BME280;19141;48.980;8.410;2023-07-13T07:30:04;100418.41;;;20.41;66.72
32789;BME280;19141;48.980;8.410;2023-07-13T07:32:30;100421.41;;;20.51;67.29
32789;BME280;19141;48.980;8.410;2023-07-13T07:34:57;100420.47;;;20.57;66.56
32789;BME280;19141;48.980;8.410;2023-07-13T07:37:22;100431.75;;;20.66;65.36
32789;BME280;19141;48.980;8.410;2023-07-13T07:39:47;100431.06;;;20.82;62.61
32789;BME280;19141;48.980;8.410;2023-07-13T07:42:13;100426.59;;;20.88;62.79
32789;BME280;19141;48.980;8.410;2023-07-13T07:44:40;100436.56;;;20.99;61.19
32789;BME280;19141;48.980;8.410;2023-07-13T07:47:06;100435.28;;;21.01;63.57
32789;BME280;19141;48.980;8.410;2023-07-13T07:49:32;100433.50;;;21.19;60.17
32789;BME280;19141;48.980;8.410;2023-07-13T07:51:57;100434.22;;;21.26;58.72
32789;BME280;19141;48.980;8.410;2023-07-13T07:54:23;100433.72;;;21.40;58.52
32789;BME280;19141;48.980;8.410;2023-07-13T07:56:48;100432.16;;;21.45;56.86
32789;BME280;19141;48.980;8.410;2023-07-13T07:59:14;100434.66;;;21.46;56.69
32789;BME280;19141;48.980;8.410;2023-07-13T08:01:39;100435.97;;;21.72;56.37
32789;BME280;19141;48.980;8.410;2023-07-13T08:04:04;100445.75;;;21.73;58.49
32789;BME280;19141;48.980;8.410;2023-07-13T08:06:32;100435.75;;;21.90;59.79
32789;BME280;19141;48.980;8.410;2023-07-13T08:08:59;100435.75;;;21.90;61.15
32789;BME280;19141;48.980;8.410;2023-07-13T08:11:24;100434.78;;;21.97;59.23
32789;BME280;19141;48.980;8.410;2023-07-13T08:13:50;100434.19;;;22.23;53.18
32789;BME280;19141;48.980;8.410;2023-07-13T08:16:16;100437.50;;;22.25;54.71
32789;BME280;19141;48.980;8.410;2023-07-13T08:18:41;100435.69;;;22.31;53.17
32789;BME280;19141;48.980;8.410;2023-07-13T08:21:08;100433.97;;;22.41;50.91
32789;BME280;19141;48.980;8.410;2023-07-13T08:23:34;100423.03;;;22.53;49.52
32789;BME280;19141;48.980;8.410;2023-07-13T08:26:00;100427.84;;;22.68;48.69
32789;BME280;19141;48.980;8.410;2023-07-13T08:28:26;100435.59;;;22.76;48.86
32789;BME280;19141;48.980;8.410;2023-07-13T08:30:52;100438.97;;;22.83;46.78
32789;BME280;19141;48.980;8.410;2023-07-13T08:33:19;100433.53;;;22.83;48.24
32789;BME280;19141;48.980;8.410;2023-07-13T08:35:48;100432.13;;;22.97;49.10
32789;BME280;19141;48.980;8.410;2023-07-13T08:38:14;100438.91;;;23.17;49.24
32789;BME280;19141;48.980;8.410;2023-07-13T08:40:40;100435.31;;;23.11;48.03
32789;BME280;19141;48.980;8.410;2023-07-13T08:43:09;100427.88;;;23.23;47.01
32789;BME280;19141;48.980;8.410;2023-07-13T08:45:43;100432.34;;;23.13;44.49
32789;BME280;19141;48.980;8.410;2023-07-13T08:48:26;100429.88;;;23.33;45.91
32789;BME280;19141;48.980;8.410;2023-07-13T08:51:03;100424.75;;;23.37;45.34
32789;BME280;19141;48.980;8.410;2023-07-13T08:53:36;100426.00;;;23.51;45.47
32789;BME280;19141;48.980;8.410;2023-07-13T08:56:05;100436.25;;;23.66;46.27
32789;BME280;19141;48.980;8.410;2023-07-13T08:58:36;100431.44;;;23.73;43.83
32789;BME280;19141;48.980;8.410;2023-07-13T09:03:34;100425.16;;;23.94;43.67
32789;BME280;19141;48.980;8.410;2023-07-13T09:06:02;100429.03;;;24.03;42.54
32789;BME280;19141;48.980;8.410;2023-07-13T09:11:46;100432.69;;;24.41;41.79
32789;BME280;19141;48.980;8.410;2023-07-13T09:14:34;100420.84;;;24.30;42.50
32789;BME280;19141;48.980;8.410;2023-07-13T09:17:05;100427.66;;;24.60;42.09
32789;BME280;19141;48.980;8.410;2023-07-13T09:19:33;100433.88;;;24.55;41.12
32789;BME280;19141;48.980;8.410;2023-07-13T09:22:02;100431.78;;;24.68;41.02
32789;BME280;19141;48.980;8.410;2023-07-13T09:24:37;100423.03;;;24.60;41.02
32789;BME280;19141;48.980;8.410;2023-07-13T09:27:11;100429.50;;;24.97;43.84
32789;BME280;19141;48.980;8.410;2023-07-13T09:29:41;100428.25;;;25.09;43.14
32789;BME280;19141;48.980;8.410;2023-07-13T09:32:13;100421.34;;;25.02;39.38
32789;BME280;19141;48.980;8.410;2023-07-13T09:34:40;100428.81;;;25.11;40.28
32789;BME280;19141;48.980;8.410;2023-07-13T09:37:05;100435.44;;;25.31;42.11
32789;BME280;19141;48.980;8.410;2023-07-13T09:39:39;100424.00;;;25.34;41.84
32789;BME280;19141;48.980;8.410;2023-07-13T09:42:14;100424.88;;;25.55;42.17
32789;BME280;19141;48.980;8.410;2023-07-13T09:47:17;100428.53;;;25.86;44.37
32789;BME280;19141;48.980;8.410;2023-07-13T09:49:44;100427.44;;;25.87;41.21
32789;BME280;19141;48.980;8.410;2023-07-13T09:52:15;100422.31;;;26.16;39.79
32789;BME280;19141;48.980;8.410;2023-07-13T09:54:45;100429.13;;;26.34;39.46
32789;BME280;19141;48.980;8.410;2023-07-13T09:57:16;100429.41;;;26.37;38.84
32789;BME280;19141;48.980;8.410;2023-07-13T09:59:51;100434.59;;;26.59;37.43
32789;BME280;19141;48.980;8.410;2023-07-13T10:02:32;100429.91;;;26.90;38.17
32789;BME280;19141;48.980;8.410;2023-07-13T10:07:24;100420.78;;;27.30;37.96
32789;BME280;19141;48.980;8.410;2023-07-13T10:09:52;100419.63;;;27.52;36.23
32789;BME280;19141;48.980;8.410;2023-07-13T10:12:19;100428.03;;;27.61;37.38
32789;BME280;19141;48.980;8.410;2023-07-13T10:14:45;100422.75;;;27.79;35.66
32789;BME280;19141;48.980;8.410;2023-07-13T10:17:12;100421.72;;;27.70;34.62
32789;BME280;19141;48.980;8.410;2023-07-13T10:19:41;100417.75;;;27.92;33.63
32789;BME280;19141;48.980;8.410;2023-07-13T10:22:29;100418.22;;;28.04;35.29
32789;BME280;19141;48.980;8.410;2023-07-13T10:24:57;100423.25;;;28.31;34.55
32789;BME280;19141;48.980;8.410;2023-07-13T10:27:35;100418.44;;;28.47;35.33
32789;BME280;19141;48.980;8.410;2023-07-13T10:30:27;100422.78;;;28.13;35.22
32789;BME280;19141;48.980;8.410;2023-07-13T10:32:58;100415.16;;;28.10;35.56
32789;BME280;19141;48.980;8.410;2023-07-13T10:35:27;100413.63;;;28.33;34.23
32789;BME280;19141;48.980;8.410;2023-07-13T10:38:02;100417.03;;;28.15;33.31
32789;BME280;19141;48.980;8.410;2023-07-13T10:40:39;100421.13;;;28.52;32.80
32789;BME280;19141;48.980;8.410;2023-07-13T10:43:28;100422.47;;;28.83;35.34
32789;BME280;19141;48.980;8.410;2023-07-13T10:45:57;100419.47;;;28.80;33.61
32789;BME280;19141;48.980;8.410;2023-07-13T10:48:24;100418.78;;;28.69;33.85
32789;BME280;19141;48.980;8.410;2023-07-13T10:50:52;100422.81;;;28.77;35.46
32789;BME280;19141;48.980;8.410;2023-07-13T10:53:22;100408.97;;;28.92;32.89
32789;BME280;19141;48.980;8.410;2023-07-13T11:03:32;100407.53;;;29.99;34.29
32789;BME280;19141;48.980;8.410;2023-07-13T11:21:27;100394.91;;;30.82;31.11
32789;BME280;19141;48.980;8.410;2023-07-13T11:24:14;100401.41;;;31.14;31.63
32789;BME280;19141;48.980;8.410;2023-07-13T11:31:43;100397.56;;;31.28;29.68
32789;BME280;19141;48.980;8.410;2023-07-13T11:34:21;100393.78;;;31.38;30.76
32789;BME280;19141;48.980;8.410;2023-07-13T11:36:49;100401.69;;;31.53;28.71
32789;BME280;19141;48.980;8.410;2023-07-13T11:39:25;100394.38;;;32.07;28.38
32789;BME280;19141;48.980;8.410;2023-07-13T11:41:58;100395.03;;;32.04;27.45
32789;BME280;19141;48.980;8.410;2023-07-13T11:44:26;100396.72;;;31.92;28.28
32789;BME280;19141;48.980;8.410;2023-07-13T11:47:09;100387.81;;;32.17;28.48
32789;BME280;19141;48.980;8.410;2023-07-13T11:49:43;100393.84;;;31.97;26.63
32789;BME280;19141;48.980;8.410;2023-07-13T11:52:16;100394.50;;;31.30;28.52
32789;BME280;19141;48.980;8.410;2023-07-13T11:54:55;100382.31;;;31.95;28.52
32789;BME280;19141;48.980;8.410;2023-07-13T11:57:32;100390.56;;;31.58;27.42
32789;BME280;19141;48.980;8.410;2023-07-13T12:00:09;100381.63;;;31.75;26.75
32789;BME280;19141;48.980;8.410;2023-07-13T12:02:40;100381.38;;;30.86;28.55
32789;BME280;19141;48.980;8.410;2023-07-13T12:05:11;100377.94;;;30.61;28.98
32789;BME280;19141;48.980;8.410;2023-07-13T12:07:38;100376.88;;;30.76;29.11
32789;BME280;19141;48.980;8.410;2023-07-13T12:10:29;100385.31;;;31.07;27.98
32789;BME280;19141;48.980;8.410;2023-07-13T12:13:01;100382.66;;;31.43;28.03
32789;BME280;19141;48.980;8.410;2023-07-13T12:15:39;100373.28;;;31.44;28.19
32789;BME280;19141;48.980;8.410;2023-07-13T12:18:14;100380.31;;;31.73;29.00
32789;BME280;19141;48.980;8.410;2023-07-13T12:20:40;100379.81;;;32.07;29.27
32789;BME280;19141;48.980;8.410;2023-07-13T12:23:14;100381.06;;;32.23;29.32
32789;BME280;19141;48.980;8.410;2023-07-13T12:25:45;100382.59;;;32.60;29.63
32789;BME280;19141;48.980;8.410;2023-07-13T12:28:22;100381.31;;;32.66;28.73
32789;BME280;19141;48.980;8.410;2023-07-13T12:30:58;100377.47;;;32.85;29.40
32789;BME280;19141;48.980;8.410;2023-07-13T12:33:24;100382.50;;;32.43;27.02
32789;BME280;19141;48.980;8.410;2023-07-13T12:35:53;100382.94;;;31.92;27.54
32789;BME280;19141;48.980;8.410;2023-07-13T12:38:19;100373.91;;;31.00;29.05
32789;BME280;19141;48.980;8.410;2023-07-13T12:40:49;100379.56;;;30.48;29.41
32789;BME280;19141;48.980;8.410;2023-07-13T12:43:16;100380.81;;;30.05;29.21
32789;BME280;19141;48.980;8.410;2023-07-13T12:46:04;100370.69;;;29.49;30.60
32789;BME280;19141;48.980;8.410;2023-07-13T12:48:38;100362.31;;;29.59;29.72
32789;BME280;19141;48.980;8.410;2023-07-13T12:51:10;100379.56;;;30.48;30.25
32789;BME280;19141;48.980;8.410;2023-07-13T12:53:40;100383.09;;;30.95;29.40
32789;BME280;19141;48.980;8.410;2023-07-13T12:56:16;100377.00;;;30.85;27.14
32789;BME280;19141;48.980;8.410;2023-07-13T12:58:43;100380.25;;;30.08;27.96
32789;BME280;19141;48.980;8.410;2023-07-13T13:01:13;100375.50;;;29.94;28.76
32789;BME280;19141;48.980;8.410;2023-07-13T13:04:00;100379.28;;;30.17;30.01
32789;BME280;19141;48.980;8.410;2023-07-13T13:06:28;100387.22;;;30.00;29.96
32789;BME280;19141;48.980;8.410;2023-07-13T13:08:58;100383.00;;;30.40;30.01
32789;BME280;19141;48.980;8.410;2023-07-13T13:11:26;100386.97;;;30.94;29.98
32789;BME280;19141;48.980;8.410;2023-07-13T13:13:52;100387.38;;;30.41;29.89
32789;BME280;19141;48.980;8.410;2023-07-13T13:16:33;100379.69;;;30.71;30.08
32789;BME280;19141;48.980;8.410;2023-07-13T13:19:16;100390.72;;;31.12;28.83
32789;BME280;19141;48.980;8.410;2023-07-13T13:21:44;100378.84;;;30.57;27.69
32789;BME280;19141;48.980;8.410;2023-07-13T13:24:15;100377.34;;;29.99;28.79
32789;BME280;19141;48.980;8.410;2023-07-13T13:26:42;100377.91;;;29.63;29.77
32789;BME280;19141;48.980;8.410;2023-07-13T13:29:13;100372.19;;;29.79;31.01
32789;BME280;19141;48.980;8.410;2023-07-13T13:31:39;100380.78;;;29.72;30.75
32789;BME280;19141;48.980;8.410;2023-07-13T13:34:09;100375.59;;;29.70;30.70
32789;BME280;19141;48.980;8.410;2023-07-13T13:36:35;100367.22;;;29.81;30.28
32789;BME280;19141;48.980;8.410;2023-07-13T13:39:00;100374.53;;;29.29;31.83
32789;BME280;19141;48.980;8.410;2023-07-13T13:41:27;100376.06;;;28.92;29.75
32789;BME280;19141;48.980;8.410;2023-07-13T13:43:52;100364.63;;;28.56;30.44
32789;BME280;19141;48.980;8.410;2023-07-13T13:46:23;100372.13;;;28.74;31.35
32789;BME280;19141;48.980;8.410;2023-07-13T13:48:55;100362.97;;;28.60;30.17
32789;BME280;19141;48.980;8.410;2023-07-13T13:51:23;100366.97;;;28.44;30.34
32789;BME280;19141;48.980;8.410;2023-07-13T13:53:49;100375.25;;;28.38;31.33
32789;BME280;19141;48.980;8.410;2023-07-13T13:56:17;100372.03;;;28.31;33.38
32789;BME280;19141;48.980;8.410;2023-07-13T13:58:43;100372.84;;;28.27;32.71
32789;BME280;19141;48.980;8.410;2023-07-13T14:01:20;100377.16;;;28.04;32.88
32789;BME280;19141;48.980;8.410;2023-07-13T14:03:46;100367.59;;;28.01;33.27
32789;BME280;19141;48.980;8.410;2023-07-13T14:06:15;100368.97;;;27.99;32.18
32789;BME280;19141;48.980;8.410;2023-07-13T14:08:41;100368.34;;;27.68;33.21
32789;BME280;19141;48.980;8.410;2023-07-13T14:11:16;100366.84;;;27.91;32.29
32789;BME280;19141;48.980;8.410;2023-07-13T14:13:44;100372.25;;;28.01;31.49
32789;BME280;19141;48.980;8.410;2023-07-13T14:16:18;100360.22;;;27.97;33.38
32789;BME280;19141;48.980;8.410;2023-07-13T14:18:45;100364.06;;;27.96;32.89
32789;BME280;19141;48.980;8.410;2023-07-13T14:21:19;100366.84;;;27.91;33.12
32789;BME280;19141;48.980;8.410;2023-07-13T14:23:46;100367.84;;;28.05;33.89
32789;BME280;19141;48.980;8.410;2023-07-13T14:26:19;100369.47;;;28.06;32.71
32789;BME280;19141;48.980;8.410;2023-07-13T14:28:47;100376.66;;;27.97;32.86
32789;BME280;19141;48.980;8.410;2023-07-13T14:31:15;100367.75;;;27.81;32.82
32789;BME280;19141;48.980;8.410;2023-07-13T14:33:41;100371.75;;;27.94;33.69
32789;BME280;19141;48.980;8.410;2023-07-13T14:36:31;100371.25;;;27.87;33.53
32789;BME280;19141;48.980;8.410;2023-07-13T14:38:58;100369.47;;;27.62;32.51
32789;BME280;19141;48.980;8.410;2023-07-13T14:41:24;100366.47;;;27.68;32.78
32789;BME280;19141;48.980;8.410;2023-07-13T14:43:50;100380.22;;;27.53;33.73
32789;BME280;19141;48.980;8.410;2023-07-13T14:46:27;100375.84;;;27.52;32.86
32789;BME280;19141;48.980;8.410;2023-07-13T14:49:06;100376.06;;;27.61;33.11
32789;BME280;19141;48.980;8.410;2023-07-13T14:51:32;100377.44;;;27.58;32.58
32789;BME280;19141;48.980;8.410;2023-07-13T14:54:03;100377.19;;;27.54;33.48
32789;BME280;19141;48.980;8.410;2023-07-13T14:56:29;100379.63;;;27.56;33.10
32789;BME280;19141;48.980;8.410;2023-07-13T14:58:54;100376.41;;;27.49;32.16
32789;BME280;19141;48.980;8.410;2023-07-13T15:01:20;100376.97;;;27.46;34.07
32789;BME280;19141;48.980;8.410;2023-07-13T15:03:50;100386.22;;;27.50;32.98
32789;BME280;19141;48.980;8.410;2023-07-13T15:06:17;100376.72;;;27.37;34.03
32789;BME280;19141;48.980;8.410;2023-07-13T15:08:44;100380.88;;;27.29;34.22
32789;BME280;19141;48.980;8.410;2023-07-13T15:11:10;100373.78;;;27.23;34.04
32789;BME280;19141;48.980;8.410;2023-07-13T15:13:39;100379.88;;;27.10;33.11
32789;BME280;19141;48.980;8.410;2023-07-13T15:16:15;100377.41;;;27.09;34.34
32789;BME280;19141;48.980;8.410;2023-07-13T15:18:40;100373.06;;;27.08;35.21
32789;BME280;19141;48.980;8.410;2023-07-13T15:21:10;100372.22;;;27.02;34.20
32789;BME280;19141;48.980;8.410;2023-07-13T15:23:39;100370.63;;;26.91;34.16
32789;BME280;19141;48.980;8.410;2023-07-13T15:26:04;100368.38;;;27.03;34.69
32789;BME280;19141;48.980;8.410;2023-07-13T15:28:31;100374.94;;;27.02;35.05
32789;BME280;19141;48.980;8.410;2023-07-13T15:30:57;100367.56;;;27.02;33.46
32789;BME280;19141;48.980;8.410;2023-07-13T15:33:26;100367.88;;;27.06;33.36
32789;BME280;19141;48.980;8.410;2023-07-13T15:35:52;100359.09;;;27.14;32.33
32789;BME280;19141;48.980;8.410;2023-07-13T15:38:28;100369.50;;;27.02;32.95
32789;BME280;19141;48.980;8.410;2023-07-13T15:40:55;100362.94;;;26.93;33.33
32789;BME280;19141;48.980;8.410;2023-07-13T15:43:21;100359.09;;;27.04;34.79
32789;BME280;19141;48.980;8.410;2023-07-13T15:45:47;100356.72;;;26.72;33.86
32789;BME280;19141;48.980;8.410;2023-07-13T15:48:16;100350.16;;;26.78;34.97
32789;BME280;19141;48.980;8.410;2023-07-13T15:50:47;100361.94;;;26.73;33.67
32789;BME280;19141;48.980;8.410;2023-07-13T15:53:18;100362.19;;;26.72;33.48
32789;BME280;19141;48.980;8.410;2023-07-13T15:55:44;100357.53;;;26.77;33.89
32789;BME280;19141;48.980;8.410;2023-07-13T15:58:12;100356.19;;;26.75;33.89
32789;BME280;19141;48.980;8.410;2023-07-13T16:00:40;100356.72;;;26.72;34.26
32789;BME280;19141;48.980;8.410;2023-07-13T16:03:06;100356.78;;;26.62;35.39
32789;BME280;19141;48.980;8.410;2023-07-13T16:05:33;100361.41;;;26.61;34.88
32789;BME280;19141;48.980;8.410;2023-07-13T16:07:58;100356.50;;;26.53;34.85
32789;BME280;19141;48.980;8.410;2023-07-13T16:10:32;100360.91;;;26.49;34.57
32789;BME280;19141;48.980;8.410;2023-07-13T16:12:59;100358.69;;;26.56;35.73
32789;BME280;19141;48.980;8.410;2023-07-13T16:15:25;100345.31;;;26.55;35.70
32789;BME280;19141;48.980;8.410;2023-07-13T16:17:51;100351.31;;;26.51;35.03
32789;BME280;19141;48.980;8.410;2023-07-13T16:20:17;100342.84;;;26.53;35.97
32789;BME280;19141;48.980;8.410;2023-07-13T16:22:48;100349.41;;;26.52;35.69
32789;BME280;19141;48.980;8.410;2023-07-13T16:25:21;100351.03;;;26.58;36.54
32789;BME280;19141;48.980;8.410;2023-07-13T16:27:49;100352.41;;;26.56;36.75
32789;BME280;19141;48.980;8.410;2023-07-13T16:30:21;100363.06;;;26.52;34.62
32789;BME280;19141;48.980;8.410;2023-07-13T16:32:50;100358.94;;;26.39;35.13
32789;BME280;19141;48.980;8.410;2023-07-13T16:35:20;100368.00;;;26.35;34.97
32789;BME280;19141;48.980;8.410;2023-07-13T16:37:46;100364.69;;;26.33;34.50
32789;BME280;19141;48.980;8.410;2023-07-13T16:40:33;100362.25;;;26.36;35.20
32789;BME280;19141;48.980;8.410;2023-07-13T16:43:00;100371.53;;;26.30;35.34
32789;BME280;19141;48.980;8.410;2023-07-13T16:45:30;100373.44;;;26.19;35.68
32789;BME280;19141;48.980;8.410;2023-07-13T16:48:00;100370.44;;;26.21;36.77
32789;BME280;19141;48.980;8.410;2023-07-13T16:50:31;100376.44;;;25.92;35.15
32789;BME280;19141;48.980;8.410;2023-07-13T16:52:57;100374.53;;;25.93;36.45
32789;BME280;19141;48.980;8.410;2023-07-13T16:55:23;100378.09;;;25.83;36.02
32789;BME280;19141;48.980;8.410;2023-07-13T16:57:58;100373.66;;;25.72;35.66
32789;BME280;19141;48.980;8.410;2023-07-13T17:00:29;100375.56;;;25.66;36.23
32789;BME280;19141;48.980;8.410;2023-07-13T17:03:02;100366.00;;;25.59;35.42
32789;BME280;19141;48.980;8.410;2023-07-13T17:05:36;100360.00;;;25.67;36.56
32789;BME280;19141;48.980;8.410;2023-07-13T17:08:09;100363.28;;;25.64;35.62
32789;BME280;19141;48.980;8.410;2023-07-13T17:10:36;100367.66;;;25.65;36.15
32789;BME280;19141;48.980;8.410;2023-07-13T17:13:02;100367.63;;;25.60;36.25
32789;BME280;19141;48.980;8.410;2023-07-13T17:15:29;100366.25;;;25.62;36.52
32789;BME280;19141;48.980;8.410;2023-07-13T17:17:56;100372.00;;;25.61;36.58
32789;BME280;19141;48.980;8.410;2023-07-13T17:20:35;100366.31;;;25.73;37.16
32789;BME280;19141;48.980;8.410;2023-07-13T17:23:04;100369.63;;;25.85;37.72
32789;BME280;19141;48.980;8.410;2023-07-13T17:25:30;100362.25;;;25.80;36.91
32789;BME280;19141;48.980;8.410;2023-07-13T17:27:56;100366.03;;;25.74;37.97
32789;BME280;19141;48.980;8.410;2023-07-13T17:30:22;100370.38;;;25.65;37.60
32789;BME280;19141;48.980;8.410;2023-07-13T17:32:49;100368.47;;;25.65;37.53
32789;BME280;19141;48.980;8.410;2023-07-13T17:35:19;100369.00;;;25.57;37.52
32789;BME280;19141;48.980;8.410;2023-07-13T17:37:46;100373.88;;;25.55;36.83
32789;BME280;19141;48.980;8.410;2023-07-13T17:40:14;100367.88;;;25.48;37.08
32789;BME280;19141;48.980;8.410;2023-07-13T17:42:44;100375.78;;;25.44;36.90
32789;BME280;19141;48.980;8.410;2023-07-13T17:45:10;100376.59;;;25.40;37.90
32789;BME280;19141;48.980;8.410;2023-07-13T17:47:36;100377.38;;;25.30;37.05
32789;BME280;19141;48.980;8.410;2023-07-13T17:50:10;100379.81;;;25.27;37.63
32789;BME280;19141;48.980;8.410;2023-07-13T17:52:37;100371.94;;;25.30;37.37
32789;BME280;19141;48.980;8.410;2023-07-13T17:55:25;100370.28;;;25.34;37.10
32789;BME280;19141;48.980;8.410;2023-07-13T17:57:50;100382.00;;;25.35;37.83
32789;BME280;19141;48.980;8.410;2023-07-13T18:00:18;100379.56;;;25.33;37.04